Time;durP1;ratioP1;P1;durP2;ratioP2;P2;SDS_P1;SDS_P2;PMS_P1;PMS_P2;Temp;Humidity;BMP_temperature;BMP_pressure;BME280_temperature;BME280_humidity;BME280_pressure;Samples;Min_cycle;Max_cycle;Signal;HPM_P1;HPM_P2
2023/04/02 00:02:36;;;;;;;4.57;4.17;;;;;;;21.36;41.69;94167.69;6042036;28;110410;-60
2023/04/02 00:05:51;;;;;;;5.53;4.60;;;;;;;21.21;41.43;94142.41;6036834;28;109312;-59
2023/04/02 00:09:01;;;;;;;6.30;4.00;;;;;;;21.34;41.68;94161.88;6042380;28;109835;-61
2023/04/02 00:12:16;;;;;;;4.97;4.57;;;;;;;21.28;41.53;94158.63;6045775;28;110189;-60
2023/04/02 00:15:23;;;;;;;4.40;4.00;;;;;;;21.31;41.89;94165.97;6037693;28;108869;-62
2023/04/02 00:18:34;;;;;;;6.20;4.37;;;;;;;21.29;41.78;94167.41;6028350;28;109259;-60
2023/04/02 00:21:43;;;;;;;4.40;3.97;;;;;;;21.25;41.29;94161.16;6041044;28;109628;-60
2023/04/02 00:24:52;;;;;;;4.50;4.10;;;;;;;21.29;41.76;94162.06;6042498;28;109186;-60
2023/04/02 00:27:58;;;;;;;4.83;4.43;;;;;;;21.25;41.29;94155.84;6032273;28;109522;-60
2023/04/02 00:31:04;;;;;;;5.10;4.00;;;;;;;21.16;41.16;94132.72;6042554;28;109301;-60
2023/04/02 00:34:19;;;;;;;4.40;4.00;;;;;;;21.25;41.36;94138.00;6041992;28;109371;-59
2023/04/02 00:37:29;;;;;;;4.10;3.80;;;;;;;21.09;41.63;94107.72;6042972;28;111613;-60
2023/04/02 00:40:34;;;;;;;5.73;3.80;;;;;;;21.27;41.27;94138.44;6032187;28;109795;-60
2023/04/02 00:43:43;;;;;;;4.60;4.10;;;;;;;21.33;41.24;94153.13;6055672;28;109263;-60
2023/04/02 00:46:50;;;;;;;4.30;3.90;;;;;;;21.34;41.30;94151.22;6040565;28;109355;-60
2023/04/02 00:50:03;;;;;;;4.87;4.37;;;;;;;21.37;41.34;94155.94;6039543;28;108795;-60
2023/04/02 00:53:18;;;;;;;5.27;4.60;;;;;;;21.37;41.66;94151.41;6040936;28;109503;-60
2023/04/02 00:56:27;;;;;;;5.93;4.10;;;;;;;21.36;41.31;94155.16;6040391;28;109114;-60
2023/04/02 00:59:36;;;;;;;3.77;3.47;;;;;;;21.35;41.54;94147.50;6040553;28;109316;-60
2023/04/02 01:02:42;;;;;;;3.83;3.53;;;;;;;21.34;41.75;94157.38;6030463;28;108950;-61
2023/04/02 01:05:52;;;;;;;4.47;3.23;;;;;;;21.28;41.81;94145.31;6040904;28;109282;-60
2023/04/02 01:09:15;;;;;;;3.87;3.57;;;;;;;21.18;41.94;94132.41;6041460;28;109468;-60
2023/04/02 01:12:39;;;;;;;3.60;3.30;;;;;;;21.32;41.98;94164.88;6043418;28;109772;-61
2023/04/02 01:15:52;;;;;;;4.33;3.40;;;;;;;21.31;42.07;94168.63;6037569;28;109606;-60
2023/04/02 01:19:09;;;;;;;5.03;4.33;;;;;;;21.27;41.98;94159.75;6041365;28;109107;-61
2023/04/02 01:22:22;;;;;;;4.20;3.27;;;;;;;21.31;42.03;94160.66;6041034;28;109105;-60
2023/04/02 01:25:32;;;;;;;7.13;4.27;;;;;;;21.29;41.85;94167.41;6030725;28;109275;-60
2023/04/02 01:28:56;;;;;;;4.63;3.27;;;;;;;21.29;41.84;94168.19;6041423;28;109204;-61
2023/04/02 01:32:04;;;;;;;3.90;3.30;;;;;;;21.28;42.16;94171.94;6019509;28;109189;-61
2023/04/02 01:35:10;;;;;;;3.67;3.37;;;;;;;21.26;41.81;94170.69;6036981;28;109082;-62
2023/04/02 01:38:20;;;;;;;3.13;2.90;;;;;;;21.27;41.92;94173.03;6035436;28;110250;-60
2023/04/02 01:41:30;;;;;;;3.27;2.50;;;;;;;21.25;41.77;94169.94;6041269;28;110064;-60
2023/04/02 01:44:39;;;;;;;3.30;3.00;;;;;;;21.16;41.94;94153.22;6041173;28;109054;-60
2023/04/02 01:47:44;;;;;;;3.17;2.87;;;;;;;21.26;41.94;94171.47;6031187;28;109083;-60
2023/04/02 01:50:51;;;;;;;4.13;3.73;;;;;;;21.10;42.12;94149.19;6040745;28;109255;-60
2023/04/02 01:54:00;;;;;;;3.00;2.80;;;;;;;21.21;42.13;94163.69;6041306;28;110118;-60
2023/04/02 01:57:06;;;;;;;4.17;3.23;;;;;;;21.17;42.07;94158.25;6040090;28;109119;-60
2023/04/02 02:00:16;;;;;;;2.93;2.63;;;;;;;21.24;41.96;94165.72;6030248;28;109442;-60
2023/04/02 02:03:24;;;;;;;3.90;2.90;;;;;;;21.23;42.13;94164.16;6039654;28;109149;-60
2023/04/02 02:06:31;;;;;;;3.37;3.07;;;;;;;21.03;42.05;94140.91;6040649;28;109922;-60
2023/04/02 02:09:37;;;;;;;3.10;2.70;;;;;;;21.16;42.47;94169.94;6033734;28;109246;-60
2023/04/02 02:12:50;;;;;;;4.23;2.70;;;;;;;21.17;41.87;94171.53;6036477;28;109455;-60
2023/04/02 02:16:02;;;;;;;3.20;2.90;;;;;;;21.17;41.91;94174.19;6040647;28;109098;-61
2023/04/02 02:19:16;;;;;;;3.53;2.90;;;;;;;21.17;42.10;94170.72;6039673;28;110166;-60
2023/04/02 02:22:29;;;;;;;3.07;2.77;;;;;;;21.16;41.79;94171.84;6026532;28;109718;-61
2023/04/02 02:25:37;;;;;;;3.40;2.73;;;;;;;21.12;41.59;94166.38;6040616;28;109204;-60
2023/04/02 02:28:48;;;;;;;3.17;2.77;;;;;;;21.13;42.05;94167.16;6039839;28;109387;-61
2023/04/02 02:31:59;;;;;;;2.70;2.23;;;;;;;21.10;41.94;94162.47;6040116;28;109294;-60
2023/04/02 02:35:13;;;;;;;4.60;2.30;;;;;;;21.13;42.18;94167.94;6032220;28;109569;-60
2023/04/02 02:38:52;;;;;;;2.73;2.53;;;;;;;21.12;41.77;94163.72;6034715;28;109209;-61
2023/04/02 02:42:03;;;;;;;3.33;2.80;;;;;;;21.10;41.68;94160.59;6018662;28;109298;-60
2023/04/02 02:45:15;;;;;;;2.70;2.30;;;;;;;21.08;41.85;94154.06;6035405;28;109073;-60
2023/04/02 02:48:24;;;;;;;3.43;2.20;;;;;;;21.10;41.95;94157.16;6039964;28;109093;-60
2023/04/02 02:51:39;;;;;;;2.30;2.10;;;;;;;21.11;41.74;94164.03;6040542;28;109188;-60
2023/04/02 02:54:47;;;;;;;3.07;2.20;;;;;;;21.07;41.78;94155.16;6039182;28;109086;-64
2023/04/02 02:57:58;;;;;;;3.47;2.43;;;;;;;21.07;41.61;94163.13;6034070;28;109096;-60
2023/04/02 03:01:05;;;;;;;2.47;2.27;;;;;;;21.09;41.68;94160.94;6039149;28;111302;-59
2023/04/02 03:04:12;;;;;;;2.27;2.07;;;;;;;21.00;41.51;94146.84;6038861;28;109234;-60
2023/04/02 03:07:18;;;;;;;2.33;1.97;;;;;;;21.07;41.84;94163.91;6029769;28;109326;-62
2023/04/02 03:10:30;;;;;;;3.00;2.40;;;;;;;21.06;41.90;94165.00;6042417;28;109132;-60
2023/04/02 03:13:37;;;;;;;3.20;2.27;;;;;;;21.06;41.39;94157.03;6049651;28;109069;-60
2023/04/02 03:16:46;;;;;;;2.50;2.23;;;;;;;21.05;41.74;94175.97;6043646;28;109606;-60
2023/04/02 03:19:56;;;;;;;2.70;2.50;;;;;;;21.03;41.95;94188.78;6032532;28;109225;-60
2023/04/02 03:23:09;;;;;;;2.07;1.83;;;;;;;21.02;41.77;94176.59;6043724;28;110041;-60
2023/04/02 03:26:19;;;;;;;4.30;2.00;;;;;;;21.02;41.54;94180.03;6043975;28;112028;-60
2023/04/02 03:29:26;;;;;;;2.47;2.27;;;;;;;;;;6038079;28;109215;-59
2023/04/02 03:32:34;;;;;;;2.03;1.87;;;;;;;20.98;41.39;94171.09;6037996;28;108876;-60
2023/04/02 03:35:43;;;;;;;2.87;1.93;;;;;;;21.02;41.39;94187.22;6044170;28;109019;-60
2023/04/02 03:38:53;;;;;;;2.53;2.33;;;;;;;21.00;41.56;94186.75;6043754;28;109298;-60
2023/04/02 03:42:03;;;;;;;2.63;2.27;;;;;;;20.96;41.55;94188.50;6033036;28;110174;-61
2023/04/02 03:45:14;;;;;;;2.53;2.10;;;;;;;20.91;41.36;94182.25;6051677;28;108988;-61
2023/04/02 03:48:25;;;;;;;4.13;1.90;;;;;;;20.98;41.75;94189.72;6043170;28;110162;-61
2023/04/02 03:51:39;;;;;;;2.60;1.97;;;;;;;20.98;41.41;94191.59;6043272;28;109507;-61
2023/04/02 03:54:48;;;;;;;2.47;2.10;;;;;;;21.01;41.54;94191.00;6035524;28;109226;-60
2023/04/02 03:58:02;;;;;;;5.70;2.00;;;;;;;21.00;41.67;94192.06;6042488;28;109005;-63
2023/04/02 04:01:17;;;;;;;3.97;2.33;;;;;;;21.00;41.55;94189.41;6042687;28;109093;-61
2023/04/02 04:04:26;;;;;;;2.47;2.20;;;;;;;20.97;41.89;94180.19;6031285;28;109410;-61
2023/04/02 04:07:36;;;;;;;3.00;1.80;;;;;;;21.00;41.64;94189.41;6044035;28;109064;-61
2023/04/02 04:10:44;;;;;;;2.23;2.03;;;;;;;21.00;41.86;94189.41;6057153;28;109399;-61
2023/04/02 04:13:57;;;;;;;2.20;2.00;;;;;;;21.00;41.98;94197.38;6041230;28;109701;-60
2023/04/02 04:17:14;;;;;;;2.50;1.90;;;;;;;20.97;41.73;94196.16;6032270;28;109168;-61
2023/04/02 04:20:25;;;;;;;2.30;2.10;;;;;;;20.81;41.92;94173.84;6043793;28;109518;-61
2023/04/02 04:23:34;;;;;;;2.27;2.07;;;;;;;20.98;41.96;94196.91;6042372;28;109414;-61
2023/04/02 04:26:48;;;;;;;2.27;1.97;;;;;;;20.97;41.96;94220.06;6033275;28;109082;-62
2023/04/02 04:30:04;;;;;;;3.20;2.20;;;;;;;20.98;42.06;94218.97;6041719;28;109515;-62
2023/04/02 04:33:21;;;;;;;6.10;3.73;;;;;;;21.08;41.59;94217.88;6042373;28;109788;-63
2023/04/02 04:36:30;;;;;;;7.27;6.50;;;;;;;21.13;41.50;94215.03;6041596;28;109362;-62
2023/04/02 04:39:49;;;;;;;8.40;6.90;;;;;;;21.16;41.20;94225.81;6033138;28;109557;-62
2023/04/02 04:42:59;;;;;;;7.40;6.13;;;;;;;21.23;41.97;94221.91;6051744;28;109043;-65
2023/04/02 04:46:08;;;;;;;10.40;6.57;;;;;;;21.28;42.28;94232.34;6041410;28;109119;-63
2023/04/02 04:49:19;;;;;;;10.63;6.30;;;;;;;21.11;40.33;94236.66;6034818;28;109171;-65
2023/04/02 04:52:27;;;;;;;8.47;5.50;;;;;;;20.97;38.67;94232.59;6038658;28;109253;-66
2023/04/02 04:55:39;;;;;;;26.60;23.90;;;;;;;20.89;38.12;94220.91;6041782;28;109078;-66
2023/04/02 04:58:49;;;;;;;29.60;27.10;;;;;;;20.86;37.91;94224.97;6041789;28;110132;-66
2023/04/02 05:02:00;;;;;;;31.83;28.83;;;;;;;20.76;37.33;94214.69;6030136;28;109084;-66
2023/04/02 05:05:16;;;;;;;29.03;26.23;;;;;;;20.79;37.23;94224.66;6040722;28;109072;-66
2023/04/02 05:08:28;;;;;;;25.23;23.23;;;;;;;20.78;36.76;94233.75;6037618;28;108778;-66
2023/04/02 05:11:40;;;;;;;24.70;22.67;;;;;;;20.71;36.37;94232.69;6036322;28;109242;-66
2023/04/02 05:14:52;;;;;;;17.53;16.13;;;;;;;20.67;36.40;94229.88;6038994;28;110328;-66
2023/04/02 05:18:05;;;;;;;13.23;12.10;;;;;;;20.73;35.66;94236.59;6046367;28;109552;-66
2023/04/02 05:21:20;;;;;;;12.20;11.20;;;;;;;20.69;35.56;94227.69;6048618;28;109808;-66
2023/04/02 05:24:58;;;;;;;10.20;9.20;;;;;;;20.68;35.66;94247.38;6029830;28;110306;-66
2023/04/02 05:28:11;;;;;;;8.67;7.87;;;;;;;20.66;35.26;94241.59;6029764;28;109276;-66
2023/04/02 05:31:21;;;;;;;8.03;7.33;;;;;;;20.50;35.20;94229.88;6040011;28;109650;-66
2023/04/02 05:34:28;;;;;;;6.10;5.60;;;;;;;20.60;35.08;94237.53;6036420;28;109074;-66
2023/04/02 05:37:31;;;;;;;7.93;6.67;;;;;;;20.53;35.40;94239.91;6037085;28;109136;-65
2023/04/02 05:40:40;;;;;;;5.63;5.13;;;;;;;20.50;34.87;94236.00;6039986;28;109157;-66
2023/04/02 05:43:48;;;;;;;9.60;5.63;;;;;;;20.34;34.03;94264.16;6041901;28;109345;-66
2023/04/02 05:46:58;;;;;;;4.70;4.30;;;;;;;19.49;35.24;94255.72;6027768;28;109247;-66
2023/04/02 05:50:19;;;;;;;12.57;4.57;;;;;;;19.94;34.59;94260.81;6040373;28;109123;-66
2023/04/02 05:53:28;;;;;;;4.77;4.30;;;;;;;20.39;34.48;94260.56;6040723;28;109137;-66
2023/04/02 05:56:38;;;;;;;4.70;4.30;;;;;;;20.63;34.97;94260.81;6040530;28;109065;-67
2023/04/02 05:59:50;;;;;;;6.40;3.90;;;;;;;20.66;35.00;94238.16;6033679;28;109222;-68
2023/04/02 06:03:01;;;;;;;3.73;3.43;;;;;;;20.67;35.00;94229.06;6040354;28;109128;-67
2023/04/02 06:06:18;;;;;;;4.20;3.80;;;;;;;20.80;34.71;94252.03;6038921;28;109410;-65
2023/04/02 06:09:35;;;;;;;3.80;3.50;;;;;;;21.04;34.86;94268.25;6029790;28;110355;-66
2023/04/02 06:12:45;;;;;;;3.20;2.90;;;;;;;21.05;35.06;94263.75;6040331;28;111151;-67
2023/04/02 06:15:52;;;;;;;3.80;3.00;;;;;;;21.15;35.15;94276.69;6035904;28;109343;-66
2023/04/02 06:19:00;;;;;;;6.70;6.10;;;;;;;21.20;34.65;94276.53;6039918;28;109517;-66
2023/04/02 06:22:19;;;;;;;6.87;5.13;;;;;;;21.30;35.10;94265.53;6028599;28;109155;-67
2023/04/02 06:25:29;;;;;;;7.70;4.90;;;;;;;21.38;35.09;94259.41;6039829;28;109307;-66
2023/04/02 06:28:41;;;;;;;5.20;4.70;;;;;;;21.25;35.29;94246.31;6039221;28;109266;-67
2023/04/02 06:31:50;;;;;;;5.37;4.27;;;;;;;21.44;35.43;94260.78;6035215;28;108960;-67
2023/04/02 06:34:55;;;;;;;7.10;4.07;;;;;;;21.49;35.17;94273.13;6036969;28;108822;-67
2023/04/02 06:38:05;;;;;;;9.60;4.10;;;;;;;21.53;35.04;94268.75;6039768;28;108926;-67
2023/04/02 06:41:18;;;;;;;4.60;3.53;;;;;;;21.52;35.26;94257.31;6039771;28;109847;-64
2023/04/02 06:44:29;;;;;;;3.63;3.10;;;;;;;21.55;34.85;94253.22;6030935;28;110041;-67
2023/04/02 06:47:46;;;;;;;5.40;3.30;;;;;;;21.66;35.17;94254.41;6044768;28;109156;-67
2023/04/02 06:51:06;;;;;;;5.87;3.27;;;;;;;21.69;35.72;94271.63;6044658;28;109128;-70
2023/04/02 06:54:17;;;;;;;3.73;3.00;;;;;;;21.71;35.88;94272.88;6040636;28;109210;-69
2023/04/02 06:57:24;;;;;;;4.83;3.30;;;;;;;21.73;35.13;94269.88;6037937;28;109070;-67
2023/04/02 07:00:36;;;;;;;4.17;3.43;;;;;;;21.74;35.60;94272.22;6044330;28;109199;-68
2023/04/02 07:03:46;;;;;;;3.57;3.23;;;;;;;21.76;35.18;94283.31;6044437;28;111645;-67
2023/04/02 07:06:55;;;;;;;4.50;3.00;;;;;;;21.72;35.42;94276.31;6033771;28;111029;-67
2023/04/02 07:10:01;;;;;;;5.70;3.07;;;;;;;21.80;35.53;94283.47;6044270;28;109216;-67
2023/04/02 07:13:10;;;;;;;3.00;2.63;;;;;;;21.80;35.31;94286.13;6051593;28;109299;-67
2023/04/02 07:16:17;;;;;;;4.47;3.20;;;;;;;21.78;35.34;94283.78;6067088;28;109457;-67
2023/04/02 07:19:26;;;;;;;4.40;3.30;;;;;;;21.82;35.42;94289.28;6057570;28;109543;-67
2023/04/02 07:22:32;;;;;;;3.10;2.70;;;;;;;21.62;34.99;94258.81;6067419;28;108732;-66
2023/04/02 07:25:38;;;;;;;3.40;2.30;;;;;;;21.80;34.82;94297.56;6067714;28;109978;-67
2023/04/02 07:28:44;;;;;;;3.13;2.50;;;;;;;21.76;35.24;94291.31;6062738;28;109714;-67
2023/04/02 07:31:52;;;;;;;3.27;2.33;;;;;;;21.80;34.79;94297.56;6061847;28;109019;-68
2023/04/02 07:35:00;;;;;;;3.53;2.90;;;;;;;21.73;34.99;94294.63;6056568;28;109184;-66
2023/04/02 07:38:10;;;;;;;4.13;2.70;;;;;;;21.75;34.79;94288.97;6044007;28;109135;-66
2023/04/02 07:41:19;;;;;;;2.47;2.27;;;;;;;21.86;35.09;94295.53;6034111;28;108789;-67
2023/04/02 07:44:24;;;;;;;3.70;2.60;;;;;;;21.93;35.02;94301.13;6058764;28;109280;-67
2023/04/02 07:47:29;;;;;;;2.73;2.43;;;;;;;21.80;34.65;94280.78;6041519;28;109240;-67
2023/04/02 07:50:38;;;;;;;3.30;2.47;;;;;;;21.98;34.79;94302.81;6042714;28;109137;-62
2023/04/02 07:53:43;;;;;;;12.17;3.37;;;;;;;21.98;35.21;94297.50;6024264;28;109359;-61
2023/04/02 07:56:50;;;;;;;12.53;3.50;;;;;;;22.00;34.92;94298.72;6042103;28;108715;-61
2023/04/02 07:59:56;;;;;;;18.13;4.47;;;;;;;22.14;35.64;94295.81;6040763;28;109057;-63
2023/04/02 08:03:01;;;;;;;14.27;3.83;;;;;;;22.21;36.26;94288.09;6036999;28;109841;-61
2023/04/02 08:06:08;;;;;;;14.90;4.00;;;;;;;22.17;36.68;94292.50;6041126;28;109274;-61
2023/04/02 08:09:13;;;;;;;15.40;3.37;;;;;;;21.97;36.21;94270.06;6042795;28;109364;-61
2023/04/02 08:12:18;;;;;;;7.20;2.93;;;;;;;22.11;36.49;94286.59;6036956;28;109143;-62
2023/04/02 08:15:23;;;;;;;11.50;4.23;;;;;;;22.16;36.40;94290.94;6031080;28;109263;-62
2023/04/02 08:18:28;;;;;;;6.40;2.70;;;;;;;21.96;36.70;94267.72;6056588;28;109072;-61
2023/04/02 08:21:34;;;;;;;9.83;2.60;;;;;;;21.93;36.26;94273.72;6044855;28;109117;-61
2023/04/02 08:24:40;;;;;;;5.47;3.57;;;;;;;22.01;36.08;94288.84;6045615;28;109127;-61
2023/04/02 08:27:48;;;;;;;3.20;1.90;;;;;;;21.97;36.36;94296.72;6048576;28;109315;-60
2023/04/02 08:30:54;;;;;;;5.83;2.27;;;;;;;21.95;35.85;94298.91;6050456;28;109025;-60
2023/04/02 08:34:00;;;;;;;4.87;2.03;;;;;;;21.96;36.14;94303.13;6042658;28;109792;-64
2023/04/02 08:37:10;;;;;;;5.97;1.77;;;;;;;21.91;35.60;94303.34;6037315;28;108863;-62
2023/04/02 08:40:25;;;;;;;3.77;1.73;;;;;;;21.95;35.62;94306.91;6042495;28;109386;-61
2023/04/02 08:43:57;;;;;;;4.43;2.10;;;;;;;21.95;35.44;94304.25;6052583;28;108856;-62
2023/04/02 08:47:06;;;;;;;4.40;1.77;;;;;;;21.93;35.34;94311.78;6053285;28;109203;-68
2023/04/02 08:50:25;;;;;;;3.00;1.40;;;;;;;21.90;35.26;94307.09;6031555;28;109773;-63
2023/04/02 08:53:36;;;;;;;1.50;1.40;;;;;;;21.94;34.99;94316.00;6041588;28;109114;-62
2023/04/02 08:56:44;;;;;;;2.67;2.10;;;;;;;21.87;34.71;94291.78;6038397;28;109509;-63
2023/04/02 08:59:55;;;;;;;2.47;1.50;;;;;;;21.94;34.88;94307.22;6034185;28;109224;-63
2023/04/02 09:03:06;;;;;;;3.43;1.90;;;;;;;21.97;34.62;94302.03;6036455;28;109229;-68
2023/04/02 09:06:17;;;;;;;5.70;1.80;;;;;;;21.97;34.98;94302.03;6040703;28;109438;-68
2023/04/02 09:09:25;;;;;;;2.80;1.67;;;;;;;21.96;35.29;94294.38;6041737;28;109297;-65
2023/04/02 09:12:36;;;;;;;2.23;1.50;;;;;;;22.01;34.74;94302.16;6034673;28;110724;-66
2023/04/02 09:15:40;;;;;;;4.60;1.90;;;;;;;22.07;35.37;94300.88;6038503;28;109227;-66
2023/04/02 09:18:51;;;;;;;3.47;1.40;;;;;;;22.11;34.92;94297.25;6045150;28;108899;-67
2023/04/02 09:22:07;;;;;;;2.40;1.60;;;;;;;22.20;34.77;94291.88;6040403;28;109097;-67
2023/04/02 09:25:17;;;;;;;3.70;1.60;;;;;;;22.29;35.36;94294.47;6029247;28;109392;-68
2023/04/02 09:28:24;;;;;;;1.37;1.27;;;;;;;22.34;35.52;94295.03;6038737;28;109262;-68
2023/04/02 09:31:36;;;;;;;1.57;1.30;;;;;;;22.24;35.50;94268.00;6039146;28;111929;-67
2023/04/02 09:34:41;;;;;;;2.17;1.30;;;;;;;22.43;35.00;94287.00;6028235;28;109263;-67
2023/04/02 09:38:10;;;;;;;2.43;1.20;;;;;;;22.47;35.45;94287.09;6039566;28;109332;-66
2023/04/02 09:41:22;;;;;;;1.80;1.50;;;;;;;22.47;35.39;94285.22;6040647;28;109506;-70
2023/04/02 09:44:29;;;;;;;2.10;1.30;;;;;;;22.51;35.46;94282.69;6042384;28;109274;-69
2023/04/02 09:47:35;;;;;;;1.30;1.20;;;;;;;22.50;34.82;94278.44;6030086;28;109921;-70
2023/04/02 09:50:41;;;;;;;3.10;1.30;;;;;;;22.48;35.42;94273.44;6039847;28;109796;-67
2023/04/02 09:53:48;;;;;;;1.50;1.20;;;;;;;22.43;35.13;94255.00;6038864;28;109234;-68
2023/04/02 09:57:05;;;;;;;1.90;1.70;;;;;;;22.57;35.08;94274.19;6035935;28;109137;-66
2023/04/02 10:00:17;;;;;;;1.73;1.00;;;;;;;22.55;35.96;94262.28;6034989;28;109352;-66
2023/04/02 10:03:34;;;;;;;2.07;1.30;;;;;;;22.61;36.25;94275.09;6039939;28;109935;-68
2023/04/02 10:06:56;;;;;;;2.63;1.07;;;;;;;22.53;36.07;94275.94;6038904;28;109144;-69
2023/04/02 10:10:15;;;;;;;2.30;1.10;;;;;;;22.48;36.32;94265.44;6031731;28;109300;-68
2023/04/02 10:13:29;;;;;;;1.87;1.47;;;;;;;22.46;36.05;94265.00;6045102;28;109514;-64
2023/04/02 10:16:41;;;;;;;2.47;1.10;;;;;;;22.48;36.79;94264.69;6042813;28;110539;-65
2023/04/02 10:19:49;;;;;;;3.57;1.30;;;;;;;22.30;36.49;94227.50;6038654;28;109304;-66
2023/04/02 10:22:54;;;;;;;3.27;1.20;;;;;;;22.49;36.82;94255.56;6037762;28;109202;-65
2023/04/02 10:26:21;;;;;;;1.93;1.20;;;;;;;22.51;36.76;94261.34;6042744;28;113858;-67
2023/04/02 10:29:49;;;;;;;2.73;1.40;;;;;;;22.52;36.53;94247.72;6046643;28;109191;-68
2023/04/02 10:33:00;;;;;;;2.60;1.30;;;;;;;22.57;36.53;94260.88;6034453;28;109164;-72
2023/04/02 10:36:12;;;;;;;1.80;1.23;;;;;;;22.30;36.45;94224.84;6043153;28;109112;-71
2023/04/02 10:39:24;;;;;;;6.30;1.80;;;;;;;22.63;38.44;94262.22;6040033;28;109146;-67
2023/04/02 10:42:36;;;;;;;2.47;1.33;;;;;;;22.35;39.00;94232.66;6045128;28;109139;-71
2023/04/02 10:45:47;;;;;;;6.27;1.40;;;;;;;22.47;37.58;94260.44;6041399;28;110868;-71
2023/04/02 10:49:05;;;;;;;1.67;1.00;;;;;;;22.14;34.63;94237.19;6034624;28;109239;-71
2023/04/02 10:52:20;;;;;;;2.60;1.90;;;;;;;22.20;34.62;94256.44;6044197;28;109140;-72
2023/04/02 10:55:29;;;;;;;2.73;1.40;;;;;;;22.04;33.99;94217.06;6039861;28;109582;-73
2023/04/02 10:58:40;;;;;;;4.93;1.40;;;;;;;22.21;33.72;94244.69;6046840;28;109452;-72
2023/04/02 11:01:51;;;;;;;1.87;1.67;;;;;;;22.33;33.98;94250.06;6043362;28;109093;-73
2023/04/02 11:04:59;;;;;;;0.97;0.87;;;;;;;22.36;33.79;94249.44;6040013;28;109115;-71
2023/04/02 11:08:13;;;;;;;3.30;1.10;;;;;;;22.29;34.45;94238.50;6036509;28;110140;-71
2023/04/02 11:11:22;;;;;;;2.20;1.10;;;;;;;22.32;35.11;94235.16;6047016;28;108956;-72
2023/04/02 11:14:29;;;;;;;2.53;0.93;;;;;;;22.33;35.21;94255.38;6039672;28;108850;-71
2023/04/02 11:17:37;;;;;;;1.60;0.80;;;;;;;22.19;35.50;94220.25;6037556;28;109217;-73
2023/04/02 11:21:01;;;;;;;1.20;1.10;;;;;;;22.34;36.08;94251.63;6052613;28;109070;-72
2023/04/02 11:24:23;;;;;;;1.23;0.90;;;;;;;22.37;36.36;94245.66;6046769;28;109098;-66
2023/04/02 11:27:30;;;;;;;3.97;1.17;;;;;;;22.29;36.63;94241.94;6048085;28;109581;-70
2023/04/02 11:30:36;;;;;;;2.43;1.20;;;;;;;22.07;33.43;94236.94;6031251;28;110662;-74
2023/04/02 11:33:43;;;;;;;2.30;1.07;;;;;;;22.07;34.71;94237.72;6061654;28;109304;-73
2023/04/02 11:37:07;;;;;;;2.70;1.13;;;;;;;22.08;34.28;94233.19;6053891;28;111705;-71
2023/04/02 11:40:50;;;;;;;3.87;1.30;;;;;;;22.06;34.47;94225.50;6042169;28;109048;-71
2023/04/02 11:44:03;;;;;;;3.10;1.33;;;;;;;22.09;34.61;94224.06;6023895;28;109569;-65
2023/04/02 11:47:19;;;;;;;18.53;12.47;;;;;;;22.19;34.99;94221.03;6040886;28;109199;-66
2023/04/02 11:50:32;;;;;;;13.00;9.40;;;;;;;22.27;35.29;94238.03;6041174;28;109355;-66
2023/04/02 11:53:43;;;;;;;12.77;8.67;;;;;;;22.28;34.88;94234.28;6034199;28;110687;-67
2023/04/02 11:56:57;;;;;;;12.57;9.03;;;;;;;22.31;35.49;94237.06;6042731;28;110169;-66
2023/04/02 12:00:20;;;;;;;11.80;7.83;;;;;;;22.31;36.14;94234.38;6035217;28;109208;-71
2023/04/02 12:04:07;;;;;;;11.37;7.63;;;;;;;22.30;36.16;94226.72;5126229;28;10000479;-67
2023/04/02 12:07:45;;;;;;;11.03;8.23;;;;;;;22.27;35.89;94220.16;5986195;29;109082;-66
2023/04/02 12:10:55;;;;;;;10.90;7.43;;;;;;;22.31;36.25;94220.28;5996532;29;108832;-66
2023/04/02 12:14:00;;;;;;;9.40;7.63;;;;;;;22.31;36.66;94212.28;6014890;28;109080;-66
2023/04/02 12:17:16;;;;;;;7.97;6.90;;;;;;;22.30;36.26;94202.72;6038145;28;108993;-66
2023/04/02 12:20:25;;;;;;;9.03;6.97;;;;;;;22.30;36.51;94218.72;6022204;28;108832;-66
2023/04/02 12:23:35;;;;;;;9.63;6.97;;;;;;;22.27;36.80;94212.16;6019211;28;108868;-67
2023/04/02 12:26:41;;;;;;;11.63;7.57;;;;;;;22.27;36.53;94214.84;6027705;28;108952;-67
2023/04/02 12:29:47;;;;;;;10.90;6.20;;;;;;;22.26;37.06;94209.84;6023244;28;108945;-67
2023/04/02 12:32:55;;;;;;;10.00;7.03;;;;;;;22.26;36.78;94213.28;6018415;28;109152;-67
2023/04/02 12:36:03;;;;;;;8.40;6.60;;;;;;;22.26;37.21;94209.84;6018793;29;108828;-67
2023/04/02 12:39:18;;;;;;;10.53;7.13;;;;;;;22.27;37.17;94214.84;6008071;28;108862;-67
2023/04/02 12:42:30;;;;;;;8.47;6.33;;;;;;;22.20;37.68;94203.16;6018508;29;109039;-67
2023/04/02 12:45:35;;;;;;;8.83;5.53;;;;;;;22.30;37.47;94214.19;6018937;29;108957;-65
2023/04/02 12:48:43;;;;;;;9.10;6.07;;;;;;;22.26;37.88;94207.94;6008134;28;109051;-65
2023/04/02 12:51:50;;;;;;;8.87;5.63;;;;;;;22.30;37.58;94208.06;6018676;28;108916;-66
2023/04/02 12:55:00;;;;;;;7.00;6.00;;;;;;;22.28;37.75;94210.28;6018823;28;108774;-65
2023/04/02 12:58:05;;;;;;;7.00;5.60;;;;;;;22.28;38.13;94202.28;6018870;28;109426;-66
2023/04/02 13:01:19;;;;;;;7.87;6.27;;;;;;;22.27;38.25;94187.41;6007924;28;109873;-66
2023/04/02 13:04:25;;;;;;;7.20;5.70;;;;;;;22.24;38.40;94182.72;6017936;28;108979;-66
2023/04/02 13:07:34;;;;;;;7.10;5.20;;;;;;;22.23;38.25;94187.28;6017755;28;108843;-66
2023/04/02 13:10:43;;;;;;;5.80;5.00;;;;;;;22.21;38.35;94178.84;6014442;28;108833;-65
2023/04/02 13:13:50;;;;;;;7.03;5.60;;;;;;;22.24;38.54;94186.19;6022755;28;108938;-66
2023/04/02 13:16:56;;;;;;;8.63;6.53;;;;;;;22.29;38.24;94191.28;6030366;28;108983;-65
2023/04/02 13:20:29;;;;;;;5.90;5.00;;;;;;;22.29;38.62;94180.63;6018393;28;108768;-66
2023/04/02 13:23:38;;;;;;;7.57;5.10;;;;;;;22.29;38.58;94185.97;6007999;28;108971;-66
2023/04/02 13:26:46;;;;;;;7.63;4.57;;;;;;;22.28;38.92;94183.63;6018053;29;108896;-66
2023/04/02 13:29:54;;;;;;;8.03;4.47;;;;;;;22.27;38.69;94179.41;6017780;28;108911;-67
2023/04/02 13:33:03;;;;;;;8.63;4.90;;;;;;;22.23;39.16;94176.63;6018180;29;108807;-66
2023/04/02 13:36:14;;;;;;;6.77;5.00;;;;;;;22.29;38.86;94183.31;6008002;28;109190;-71
2023/04/02 13:39:19;;;;;;;3.97;3.60;;;;;;;22.05;38.68;94146.69;6031290;28;109829;-71
2023/04/02 13:42:29;;;;;;;5.20;4.00;;;;;;;21.99;38.23;94147.19;6018318;28;108955;-70
2023/04/02 13:45:38;;;;;;;3.67;3.37;;;;;;;22.09;36.76;94171.56;6010166;28;108935;-66
2023/04/02 13:48:44;;;;;;;2.97;2.47;;;;;;;22.04;36.10;94171.78;6017172;28;108981;-70
2023/04/02 13:51:52;;;;;;;3.60;2.67;;;;;;;22.07;35.29;94173.78;6017378;29;109175;-70
2023/04/02 13:55:00;;;;;;;3.03;1.97;;;;;;;22.14;35.28;94169.81;6016502;28;109117;-71
2023/04/02 13:58:06;;;;;;;3.00;2.13;;;;;;;22.24;34.91;94174.75;6013849;28;109162;-68
2023/04/02 14:01:13;;;;;;;1.60;1.50;;;;;;;22.25;35.21;94178.97;6018640;28;108912;-70
2023/04/02 14:04:22;;;;;;;3.30;2.03;;;;;;;22.26;35.72;94172.53;6015550;28;110252;-69
2023/04/02 14:07:45;;;;;;;2.60;2.37;;;;;;;22.30;35.87;94170.75;6021408;28;108994;-67
2023/04/02 14:11:05;;;;;;;2.90;1.80;;;;;;;22.14;36.30;94143.94;6016107;28;109112;-70
2023/04/02 14:14:35;;;;;;;2.60;2.20;;;;;;;22.11;36.40;94137.38;6016752;28;108813;-68
2023/04/02 14:17:53;;;;;;;3.93;1.80;;;;;;;22.29;36.44;94169.97;6021208;28;108935;-68
2023/04/02 14:21:08;;;;;;;2.23;2.03;;;;;;;22.33;36.44;94175.41;6023291;28;110513;-68
2023/04/02 14:24:19;;;;;;;1.77;1.67;;;;;;;22.33;37.31;94165.53;6035166;28;108881;-70
2023/04/02 14:27:36;;;;;;;1.90;1.80;;;;;;;22.35;37.04;94170.56;6017753;28;109290;-69
2023/04/02 14:30:52;;;;;;;2.00;1.90;;;;;;;22.33;37.07;94170.09;6011665;29;108886;-67
2023/04/02 14:34:07;;;;;;;2.13;1.80;;;;;;;22.27;37.29;94150.09;6010729;28;108924;-71
2023/04/02 14:37:21;;;;;;;3.77;1.90;;;;;;;22.33;37.13;94159.44;6018497;28;108836;-69
2023/04/02 14:40:32;;;;;;;1.90;1.70;;;;;;;22.30;37.65;94160.88;6019684;28;108899;-68
2023/04/02 14:43:43;;;;;;;2.20;1.67;;;;;;;22.34;37.31;94163.66;5994194;28;111263;-69
2023/04/02 14:47:01;;;;;;;3.57;1.87;;;;;;;22.35;37.44;94151.91;6004325;28;108904;-70
2023/04/02 14:50:12;;;;;;;2.13;1.93;;;;;;;22.35;37.50;94158.03;6004095;28;109248;-69